createdAt,value
2023-03-21T00:00:30.001Z,25.77
2023-03-21T00:02:56.552Z,25.10
2023-03-21T00:05:23.664Z,25.25
2023-03-21T00:07:50.631Z,25.48
2023-03-21T00:10:26.733Z,24.77
2023-03-21T00:12:59.791Z,25.67
2023-03-21T00:15:30.564Z,24.98
2023-03-21T00:18:04.398Z,24.58
2023-03-21T00:20:34.367Z,24.45
2023-03-21T00:23:01.944Z,24.13
2023-03-21T00:25:28.547Z,24.58
2023-03-21T00:28:07.484Z,24.55
2023-03-21T00:30:35.135Z,26.02
2023-03-21T00:33:12.002Z,23.70
2023-03-21T00:36:05.840Z,25.45
2023-03-21T00:38:32.709Z,24.90
2023-03-21T00:41:04.578Z,24.33
2023-03-21T00:43:34.337Z,23.25
2023-03-21T00:46:01.043Z,24.25
2023-03-21T00:48:28.172Z,24.17
2023-03-21T00:50:57.200Z,23.95
2023-03-21T00:53:23.816Z,24.45
2023-03-21T00:55:51.751Z,23.55
2023-03-21T00:58:18.484Z,23.13
2023-03-21T01:00:49.181Z,22.85
2023-03-21T01:03:24.835Z,22.35
2023-03-21T01:06:05.801Z,23.15
2023-03-21T01:08:51.734Z,23.98
2023-03-21T01:11:24.706Z,23.23
2023-03-21T01:13:59.594Z,22.92
2023-03-21T01:16:31.308Z,22.73
2023-03-21T01:18:58.434Z,22.90
2023-03-21T01:21:25.454Z,22.65
2023-03-21T01:23:52.177Z,22.98
2023-03-21T01:26:19.188Z,23.05
2023-03-21T01:28:46.296Z,23.75
2023-03-21T01:31:15.239Z,22.63
2023-03-21T01:33:41.953Z,24.40
2023-03-21T01:36:14.348Z,23.70
2023-03-21T01:38:42.976Z,23.58
2023-03-21T01:41:43.493Z,23.67
2023-03-21T01:44:15.531Z,23.23
2023-03-21T01:47:00.469Z,25.00
2023-03-21T01:49:46.268Z,24.02
2023-03-21T01:52:29.641Z,24.52
2023-03-21T01:55:04.595Z,23.52
2023-03-21T01:57:43.721Z,24.50
2023-03-21T02:00:15.647Z,24.77
2023-03-21T02:02:52.467Z,24.67
2023-03-21T02:05:38.794Z,25.17
2023-03-21T02:08:05.892Z,25.73
2023-03-21T02:10:32.903Z,24.02
2023-03-21T02:13:09.413Z,25.90
2023-03-21T02:15:38.598Z,24.85
2023-03-21T02:18:05.538Z,24.40
2023-03-21T02:21:09.740Z,24.80
2023-03-21T02:23:54.295Z,25.73
2023-03-21T02:26:42.355Z,23.58
2023-03-21T02:29:46.804Z,21.60
2023-03-21T02:32:25.359Z,22.92
2023-03-21T02:35:08.832Z,23.60
2023-03-21T02:37:40.318Z,24.70
2023-03-21T02:40:23.159Z,26.52
2023-03-21T02:43:07.212Z,26.17
2023-03-21T02:46:08.530Z,25.90
2023-03-21T02:48:50.373Z,28.10
2023-03-21T02:51:21.558Z,27.58
2023-03-21T02:54:23.668Z,25.63
2023-03-21T02:56:47.094Z,27.13
2023-03-21T02:59:16.884Z,28.58
2023-03-21T03:01:43.678Z,28.83
2023-03-21T03:04:22.808Z,28.02
2023-03-21T03:07:26.900Z,28.80
2023-03-21T03:09:59.588Z,29.35
2023-03-21T03:12:50.924Z,29.02
2023-03-21T03:15:28.498Z,29.65
2023-03-21T03:18:20.739Z,29.60
2023-03-21T03:21:08.286Z,32.38
2023-03-21T03:23:45.657Z,30.50
2023-03-21T03:26:15.894Z,34.35
2023-03-21T03:28:47.803Z,34.78
2023-03-21T03:31:21.925Z,36.40
2023-03-21T03:33:52.173Z,31.98
2023-03-21T03:36:31.477Z,32.22
2023-03-21T03:39:01.066Z,35.05
2023-03-21T03:41:29.963Z,38.10
2023-03-21T03:44:01.269Z,36.55
2023-03-21T03:46:33.505Z,36.40
2023-03-21T03:49:13.720Z,36.92
2023-03-21T03:51:54.562Z,37.67
2023-03-21T03:54:26.598Z,36.40
2023-03-21T03:56:53.853Z,38.80
2023-03-21T03:59:23.342Z,43.85
2023-03-21T04:01:49.907Z,45.60
2023-03-21T04:04:17.137Z,43.47
2023-03-21T04:06:51.442Z,42.13
2023-03-21T04:09:22.167Z,43.90
2023-03-21T04:11:51.773Z,43.83
2023-03-21T04:14:18.366Z,44.28
2023-03-21T04:16:44.947Z,45.00
2023-03-21T04:19:11.538Z,42.75
2023-03-21T04:21:39.385Z,42.53
2023-03-21T04:24:07.592Z,40.67
2023-03-21T04:26:35.925Z,37.55
2023-03-21T04:29:05.645Z,36.92
2023-03-21T04:31:34.828Z,35.80
2023-03-21T04:34:03.213Z,35.25
2023-03-21T04:36:39.235Z,34.13
2023-03-21T04:39:12.251Z,33.95
2023-03-21T04:41:44.549Z,33.65
2023-03-21T04:44:12.952Z,34.13
2023-03-21T04:46:39.882Z,31.98
2023-03-21T04:49:09.755Z,31.88
2023-03-21T04:51:37.055Z,32.08
2023-03-21T04:54:03.800Z,33.42
2023-03-21T04:56:34.049Z,32.53
2023-03-21T04:59:05.367Z,31.17
2023-03-21T05:01:32.063Z,33.85
2023-03-21T05:04:00.445Z,37.08
2023-03-21T05:06:28.078Z,42.33
2023-03-21T05:09:05.400Z,44.33
2023-03-21T05:11:35.848Z,46.20
2023-03-21T05:14:02.500Z,47.42
2023-03-21T05:16:30.899Z,47.20
2023-03-21T05:18:59.218Z,48.03
2023-03-21T05:21:29.502Z,48.65
2023-03-21T05:23:58.403Z,53.28
2023-03-21T05:26:25.763Z,57.88
2023-03-21T05:28:52.588Z,61.17
2023-03-21T05:31:20.423Z,65.82
2023-03-21T05:33:47.980Z,68.80
2023-03-21T05:36:15.414Z,71.05
2023-03-21T05:38:45.537Z,74.70
2023-03-21T05:41:18.761Z,73.43
2023-03-21T05:43:45.866Z,73.28
2023-03-21T05:46:12.686Z,75.65
2023-03-21T05:48:39.383Z,78.03
2023-03-21T05:51:06.316Z,76.68
2023-03-21T05:53:32.864Z,75.57
2023-03-21T05:55:59.444Z,72.78
2023-03-21T05:58:26.141Z,73.40
2023-03-21T06:00:52.815Z,66.80
2023-03-21T06:03:19.471Z,67.35
2023-03-21T06:05:46.324Z,66.78
2023-03-21T06:08:13.098Z,62.40
2023-03-21T06:10:39.990Z,62.00
2023-03-21T06:13:06.602Z,59.78
2023-03-21T06:15:33.492Z,59.88
2023-03-21T06:18:00.067Z,58.90
2023-03-21T06:20:26.676Z,53.85
2023-03-21T06:22:53.304Z,54.55
2023-03-21T06:25:20.169Z,50.83
2023-03-21T06:27:46.966Z,51.83
2023-03-21T06:30:14.200Z,50.25
2023-03-21T06:32:40.819Z,46.47
2023-03-21T06:35:07.722Z,42.05
2023-03-21T06:37:34.262Z,39.13
2023-03-21T06:40:01.214Z,37.47
2023-03-21T06:42:27.784Z,36.20
2023-03-21T06:44:54.320Z,35.42
2023-03-21T06:47:20.893Z,33.88
2023-03-21T06:49:47.479Z,32.58
2023-03-21T06:52:14.085Z,31.60
2023-03-21T06:54:40.651Z,30.58
2023-03-21T06:57:07.239Z,30.75
2023-03-21T06:59:33.869Z,28.80
2023-03-21T07:02:00.607Z,28.80
2023-03-21T07:04:27.680Z,27.45
2023-03-21T07:06:54.603Z,27.20
2023-03-21T07:09:24.574Z,28.85
2023-03-21T07:11:53.553Z,28.13
2023-03-21T07:14:20.560Z,30.05
2023-03-21T07:16:47.206Z,27.85
2023-03-21T07:19:14.288Z,30.23
2023-03-21T07:21:40.934Z,27.52
2023-03-21T07:24:08.016Z,27.48
2023-03-21T07:26:34.637Z,25.40
2023-03-21T07:29:01.201Z,27.48
2023-03-21T07:31:27.908Z,26.40
2023-03-21T07:33:54.496Z,26.70
2023-03-21T07:36:21.392Z,26.15
2023-03-21T07:38:47.943Z,23.67
2023-03-21T07:43:46.248Z,22.58
2023-03-21T07:46:12.996Z,20.90
2023-03-21T07:48:39.579Z,20.77
2023-03-21T07:51:06.674Z,19.45
2023-03-21T07:53:33.269Z,19.83
2023-03-21T07:55:59.824Z,19.88
2023-03-21T07:58:27.284Z,18.95
2023-03-21T08:00:55.665Z,19.30
2023-03-21T08:03:23.963Z,17.58
2023-03-21T08:05:51.143Z,16.83
2023-03-21T08:08:18.148Z,17.00
2023-03-21T08:10:44.783Z,18.30
2023-03-21T08:13:12.908Z,16.58
2023-03-21T08:15:42.134Z,15.63
2023-03-21T08:18:10.584Z,15.70
2023-03-21T08:20:37.290Z,16.13
2023-03-21T08:23:04.534Z,14.93
2023-03-21T08:25:31.510Z,16.27
2023-03-21T08:27:58.352Z,17.38
2023-03-21T08:30:28.144Z,14.82
2023-03-21T08:33:01.229Z,16.40
2023-03-21T08:35:29.488Z,19.63
2023-03-21T08:37:56.105Z,19.88
2023-03-21T08:40:22.637Z,19.70
2023-03-21T08:42:49.455Z,18.40
2023-03-21T08:45:17.328Z,18.52
2023-03-21T08:47:44.177Z,20.35
2023-03-21T08:50:13.536Z,19.50
2023-03-21T08:52:40.131Z,18.33
2023-03-21T08:55:07.199Z,18.42
2023-03-21T08:57:33.745Z,18.35
2023-03-21T09:00:00.338Z,18.90
2023-03-21T09:02:27.186Z,17.60
2023-03-21T09:04:55.030Z,18.25
2023-03-21T09:07:22.251Z,17.27
2023-03-21T09:09:58.095Z,17.35
2023-03-21T09:12:29.565Z,18.10
2023-03-21T09:14:56.332Z,19.25
2023-03-21T09:17:22.961Z,17.70
2023-03-21T09:19:50.858Z,16.77
2023-03-21T09:22:18.045Z,16.00
2023-03-21T09:24:47.706Z,16.83
2023-03-21T09:27:17.579Z,16.98
2023-03-21T09:29:45.062Z,16.40
2023-03-21T09:32:13.422Z,15.65
2023-03-21T09:34:41.246Z,15.73
2023-03-21T09:37:13.711Z,15.90
2023-03-21T09:39:41.200Z,16.58
2023-03-21T09:42:24.321Z,15.25
2023-03-21T09:44:57.612Z,14.50
2023-03-21T09:47:29.237Z,14.65
2023-03-21T09:50:13.062Z,15.40
2023-03-21T09:55:18.927Z,15.40
2023-03-21T09:57:49.408Z,15.40
2023-03-21T10:00:25.678Z,15.05
2023-03-21T10:02:59.838Z,15.80
2023-03-21T10:08:24.705Z,14.77
2023-03-21T10:10:55.842Z,15.50
2023-03-21T10:13:27.906Z,14.20
2023-03-21T10:16:00.234Z,14.45
2023-03-21T10:18:30.955Z,14.27
2023-03-21T10:20:58.188Z,13.43
2023-03-21T10:23:29.599Z,13.00
2023-03-21T10:26:00.649Z,13.38
2023-03-21T10:28:42.337Z,13.73
2023-03-21T10:31:21.104Z,12.80
2023-03-21T10:33:51.006Z,12.35
2023-03-21T10:36:22.960Z,12.15
2023-03-21T10:38:54.903Z,12.23
2023-03-21T10:41:21.976Z,11.68
2023-03-21T10:44:11.909Z,12.02
2023-03-21T10:46:38.730Z,12.10
2023-03-21T10:49:08.156Z,11.27
2023-03-21T10:51:39.107Z,11.23
2023-03-21T10:54:09.283Z,11.82
2023-03-21T10:56:39.129Z,11.45
2023-03-21T10:59:08.904Z,10.98
2023-03-21T11:01:39.356Z,10.20
2023-03-21T11:04:09.792Z,11.10
2023-03-21T11:06:41.788Z,11.07
2023-03-21T11:09:17.893Z,10.85
2023-03-21T11:12:10.308Z,10.98
2023-03-21T11:14:43.036Z,11.10
2023-03-21T11:17:18.389Z,11.10
2023-03-21T11:19:54.226Z,11.35
2023-03-21T11:22:24.862Z,10.95
2023-03-21T11:24:59.215Z,11.18
2023-03-21T11:27:29.502Z,10.35
2023-03-21T11:29:57.993Z,10.38
2023-03-21T11:32:43.578Z,10.57
2023-03-21T11:35:18.182Z,11.07
2023-03-21T11:37:51.161Z,11.35
2023-03-21T11:40:23.421Z,11.00
2023-03-21T11:42:55.558Z,11.23
2023-03-21T11:45:24.318Z,10.73
2023-03-21T11:47:53.965Z,11.00
2023-03-21T11:50:20.579Z,11.60
2023-03-21T11:53:02.046Z,11.10
2023-03-21T11:55:57.666Z,10.30
2023-03-21T11:58:56.275Z,11.77
2023-03-21T12:01:22.809Z,11.60
2023-03-21T12:04:34.014Z,10.75
2023-03-21T12:07:04.201Z,11.07
2023-03-21T12:09:45.209Z,10.95
2023-03-21T12:12:38.330Z,9.52
2023-03-21T12:15:24.827Z,10.27
2023-03-21T12:17:58.663Z,10.95
2023-03-21T12:23:22.887Z,10.13
2023-03-21T12:26:08.071Z,9.25
2023-03-21T12:28:59.368Z,8.95
2023-03-21T12:31:49.235Z,7.90
2023-03-21T12:34:24.589Z,7.45
2023-03-21T12:36:59.815Z,7.53
2023-03-21T12:39:30.917Z,7.65
2023-03-21T12:42:18.508Z,7.93
2023-03-21T12:45:26.104Z,8.07
2023-03-21T12:48:03.743Z,8.48
2023-03-21T12:50:38.800Z,8.50
2023-03-21T12:53:19.842Z,9.05
2023-03-21T12:55:46.605Z,10.27
2023-03-21T12:58:22.911Z,10.85
2023-03-21T13:00:57.359Z,10.65
2023-03-21T13:03:39.969Z,9.65
2023-03-21T13:06:10.759Z,10.23
2023-03-21T13:08:42.247Z,10.27
2023-03-21T13:11:14.269Z,10.95
2023-03-21T13:14:24.199Z,10.88
2023-03-21T13:17:01.533Z,10.88
2023-03-21T13:19:39.832Z,10.48
2023-03-21T13:22:21.386Z,9.55
2023-03-21T13:24:49.948Z,10.32
2023-03-21T13:27:42.151Z,9.80
2023-03-21T13:30:14.930Z,9.75
2023-03-21T13:32:48.651Z,10.18
2023-03-21T13:35:18.376Z,10.38
2023-03-21T13:37:56.131Z,9.73
2023-03-21T13:40:27.358Z,10.32
2023-03-21T13:42:59.854Z,10.05
2023-03-21T13:45:44.887Z,9.32
2023-03-21T13:48:31.445Z,10.55
2023-03-21T13:51:20.924Z,9.98
2023-03-21T13:54:03.772Z,9.65
2023-03-21T13:56:53.476Z,10.27
2023-03-21T13:59:38.925Z,9.85
2023-03-21T14:02:21.085Z,10.57
2023-03-21T14:05:04.264Z,9.20
2023-03-21T14:07:36.713Z,9.73
2023-03-21T14:10:25.391Z,9.43
2023-03-21T14:12:53.101Z,9.75
2023-03-21T14:15:24.163Z,9.25
2023-03-21T14:17:52.883Z,9.70
2023-03-21T14:20:33.076Z,10.15
2023-03-21T14:23:00.305Z,9.93
2023-03-21T14:25:41.059Z,9.00
2023-03-21T14:28:17.714Z,9.13
2023-03-21T14:30:45.596Z,8.60
2023-03-21T14:33:22.559Z,8.98
2023-03-21T14:35:50.010Z,8.40
2023-03-21T14:38:27.659Z,8.20
2023-03-21T14:40:56.130Z,8.45
2023-03-21T14:43:24.536Z,7.50
2023-03-21T14:45:54.625Z,8.02
2023-03-21T14:48:29.137Z,7.70
2023-03-21T14:51:01.827Z,8.30
2023-03-21T14:53:35.932Z,8.25
2023-03-21T14:56:25.493Z,7.90
2023-03-21T14:58:53.594Z,7.80
2023-03-21T15:01:32.594Z,8.18
2023-03-21T15:04:01.297Z,7.78
2023-03-21T15:06:27.908Z,7.93
2023-03-21T15:08:59.862Z,7.70
2023-03-21T15:11:30.794Z,8.15
2023-03-21T15:13:59.868Z,8.00
2023-03-21T15:16:26.700Z,8.18
2023-03-21T15:18:53.604Z,8.55
2023-03-21T15:21:22.537Z,7.85
2023-03-21T15:23:53.174Z,8.10
2023-03-21T15:26:22.780Z,8.25
2023-03-21T15:28:55.478Z,7.72
2023-03-21T15:31:25.628Z,9.02
2023-03-21T15:33:53.657Z,8.27
2023-03-21T15:36:29.181Z,8.25
2023-03-21T15:38:56.296Z,8.50
2023-03-21T15:41:23.094Z,8.27
2023-03-21T15:44:10.167Z,8.43
2023-03-21T15:46:44.295Z,9.38
2023-03-21T15:49:21.137Z,8.63
2023-03-21T15:51:52.710Z,9.85
2023-03-21T15:54:29.092Z,9.68
2023-03-21T15:57:09.503Z,9.85
2023-03-21T15:59:40.997Z,9.07
2023-03-21T16:02:23.141Z,10.00
2023-03-21T16:04:57.659Z,9.32
2023-03-21T16:07:24.996Z,10.05
2023-03-21T16:09:58.733Z,9.43
2023-03-21T16:12:25.379Z,10.48
2023-03-21T16:14:51.897Z,9.90
2023-03-21T16:17:30.406Z,9.70
2023-03-21T16:19:57.140Z,9.98
2023-03-21T16:22:23.977Z,10.25
2023-03-21T16:24:50.716Z,10.52
2023-03-21T16:27:19.554Z,9.55
2023-03-21T16:29:46.346Z,10.65
2023-03-21T16:32:16.726Z,10.25
2023-03-21T16:34:43.436Z,10.38
2023-03-21T16:37:12.967Z,9.95
2023-03-21T16:39:39.560Z,9.55
2023-03-21T16:42:06.242Z,10.52
2023-03-21T16:44:33.863Z,10.60
2023-03-21T16:47:02.347Z,10.50
2023-03-21T16:49:29.288Z,10.07
2023-03-21T16:51:56.974Z,10.48
2023-03-21T16:54:23.982Z,10.95
2023-03-21T16:56:53.455Z,9.95
2023-03-21T16:59:20.716Z,10.85
2023-03-21T17:01:48.667Z,10.75
2023-03-21T17:04:18.155Z,10.18
2023-03-21T17:06:54.190Z,10.18
2023-03-21T17:09:24.115Z,12.27
2023-03-21T17:11:50.829Z,10.75
2023-03-21T17:14:18.706Z,11.65
2023-03-21T17:16:45.866Z,10.63
2023-03-21T17:19:20.618Z,10.98
2023-03-21T17:21:47.304Z,10.82
2023-03-21T17:24:14.023Z,11.32
2023-03-21T17:26:40.716Z,11.02
2023-03-21T17:29:07.461Z,11.32
2023-03-21T17:31:37.526Z,11.20
2023-03-21T17:34:04.847Z,10.88
2023-03-21T17:36:37.140Z,11.73
2023-03-21T17:39:06.610Z,10.75
2023-03-21T17:41:33.605Z,11.02
2023-03-21T17:44:00.342Z,10.80
2023-03-21T17:46:29.141Z,12.25
2023-03-21T17:48:56.786Z,11.27
2023-03-21T17:51:26.188Z,11.82
2023-03-21T17:53:52.896Z,11.50
2023-03-21T17:56:29.891Z,11.60
2023-03-21T17:59:05.359Z,12.80
2023-03-21T18:01:32.274Z,11.90
2023-03-21T18:04:02.636Z,11.75
2023-03-21T18:06:29.490Z,14.73
2023-03-21T18:08:56.214Z,20.17
2023-03-21T18:11:24.076Z,16.13
2023-03-21T18:13:51.315Z,14.85
2023-03-21T18:16:23.525Z,13.18
2023-03-21T18:18:53.750Z,13.38
2023-03-21T18:21:22.803Z,12.48
2023-03-21T18:23:49.777Z,12.90
2023-03-21T18:26:19.680Z,13.23
2023-03-21T18:29:13.723Z,13.57
2023-03-21T18:31:34.237Z,13.55
2023-03-21T18:34:00.893Z,12.50
2023-03-21T18:36:28.922Z,13.20
2023-03-21T18:38:56.842Z,13.55
2023-03-21T18:41:23.577Z,12.90
2023-03-21T18:44:15.687Z,13.63
2023-03-21T18:46:37.369Z,12.88
2023-03-21T18:49:33.483Z,13.85
2023-03-21T18:51:51.833Z,13.70
2023-03-21T18:54:18.536Z,14.48
2023-03-21T18:57:31.800Z,13.98
2023-03-21T18:59:34.721Z,14.30
2023-03-21T19:02:03.259Z,14.00
2023-03-21T19:04:30.623Z,14.32
2023-03-21T19:06:58.503Z,14.00
2023-03-21T19:09:31.246Z,13.90
2023-03-21T19:11:58.655Z,14.88
2023-03-21T19:14:25.491Z,15.25
2023-03-21T19:19:39.405Z,15.00
2023-03-21T19:22:06.320Z,15.48
2023-03-21T19:24:32.940Z,15.35
2023-03-21T19:26:59.547Z,16.35
2023-03-21T19:29:26.333Z,15.68
2023-03-21T19:31:53.110Z,16.40
2023-03-21T19:34:20.805Z,15.43
2023-03-21T19:36:51.502Z,16.77
2023-03-21T19:39:22.195Z,16.50
2023-03-21T19:41:50.187Z,15.38
2023-03-21T19:44:17.322Z,16.38
2023-03-21T19:46:44.057Z,16.02
2023-03-21T19:49:11.284Z,15.88
2023-03-21T19:51:38.009Z,16.50
2023-03-21T19:54:06.142Z,15.98
2023-03-21T19:56:34.783Z,15.75
2023-03-21T19:59:03.161Z,17.05
2023-03-21T20:01:32.312Z,16.40
2023-03-21T20:03:59.222Z,16.55
2023-03-21T20:06:26.883Z,17.90
2023-03-21T20:11:40.716Z,16.63
2023-03-21T20:14:07.436Z,17.90
2023-03-21T20:16:35.689Z,17.23
2023-03-21T20:19:08.826Z,17.60
2023-03-21T20:21:46.096Z,17.92
2023-03-21T20:24:16.400Z,17.50
2023-03-21T20:26:45.123Z,17.35
2023-03-21T20:30:05.475Z,17.23
2023-03-21T20:31:58.619Z,16.90
2023-03-21T20:34:25.352Z,18.00
2023-03-21T20:36:53.274Z,18.20
2023-03-21T20:39:19.948Z,17.98
2023-03-21T20:41:46.773Z,18.85
2023-03-21T20:44:44.848Z,18.58
2023-03-21T20:47:00.481Z,18.88
2023-03-21T20:49:28.400Z,19.63
2023-03-21T20:54:42.347Z,19.33
2023-03-21T20:57:09.129Z,20.27
2023-03-21T20:59:35.838Z,20.10
2023-03-21T21:02:03.156Z,20.17
2023-03-21T21:04:52.791Z,21.80
2023-03-21T21:07:21.005Z,21.23
2023-03-21T21:09:48.861Z,22.63
2023-03-21T21:12:19.105Z,21.10
2023-03-21T21:14:45.988Z,21.95
2023-03-21T21:20:01.671Z,22.23
2023-03-21T21:22:28.962Z,22.42
2023-03-21T21:24:55.534Z,22.55
2023-03-21T21:27:22.101Z,23.48
2023-03-21T21:29:50.006Z,22.98
2023-03-21T21:32:17.009Z,23.77
2023-03-21T21:34:43.607Z,23.55
2023-03-21T21:37:10.674Z,23.40
2023-03-21T21:39:38.545Z,25.00
2023-03-21T21:42:05.659Z,25.90
2023-03-21T21:44:32.377Z,27.45
2023-03-21T21:46:59.479Z,27.73
2023-03-21T21:49:26.881Z,28.83
2023-03-21T21:51:53.552Z,30.35
2023-03-21T21:54:20.156Z,30.45
2023-03-21T21:56:48.519Z,30.67
2023-03-21T21:59:22.032Z,32.63
2023-03-21T22:01:51.306Z,34.65
2023-03-21T22:04:19.329Z,33.47
2023-03-21T22:06:47.575Z,33.38
2023-03-21T22:09:15.879Z,36.70
2023-03-21T22:11:42.652Z,39.15
2023-03-21T22:14:09.271Z,42.03
2023-03-21T22:16:35.961Z,42.60
2023-03-21T22:19:02.587Z,45.60
2023-03-21T22:21:30.379Z,49.50
2023-03-21T22:23:57.082Z,52.47
2023-03-21T22:26:23.731Z,53.13
2023-03-21T22:28:50.510Z,55.22
2023-03-21T22:31:17.294Z,62.08
2023-03-21T22:33:44.782Z,64.07
2023-03-21T22:36:11.766Z,67.03
2023-03-21T22:38:38.380Z,68.28
2023-03-21T22:41:06.032Z,70.22
2023-03-21T22:43:34.319Z,71.05
2023-03-21T22:46:02.459Z,73.63
2023-03-21T22:48:30.244Z,74.05
2023-03-21T22:51:00.700Z,73.57
2023-03-21T22:53:27.996Z,75.00
2023-03-21T22:55:54.689Z,78.38
2023-03-21T22:58:21.379Z,77.40
2023-03-21T23:00:48.194Z,76.28
2023-03-21T23:03:16.858Z,72.70
2023-03-21T23:05:44.730Z,67.65
2023-03-21T23:08:11.647Z,73.07
2023-03-21T23:10:39.741Z,79.13
2023-03-21T23:13:06.703Z,74.22
2023-03-21T23:15:33.646Z,71.32
2023-03-21T23:18:00.292Z,76.25
2023-03-21T23:20:26.974Z,74.70
2023-03-21T23:22:53.584Z,73.65
2023-03-21T23:25:20.653Z,61.70
2023-03-21T23:27:47.694Z,61.17
2023-03-21T23:30:14.633Z,59.53
2023-03-21T23:32:41.255Z,58.92
2023-03-21T23:35:08.972Z,54.60
2023-03-21T23:37:35.592Z,58.75
2023-03-21T23:40:02.850Z,60.10
2023-03-21T23:42:30.459Z,55.45
2023-03-21T23:44:57.265Z,48.80
2023-03-21T23:47:23.935Z,49.28
2023-03-21T23:49:52.765Z,40.67
2023-03-21T23:52:19.745Z,38.20
2023-03-21T23:54:46.289Z,38.50
2023-03-21T23:57:12.952Z,37.70
2023-03-21T23:59:39.507Z,38.47
